createdAt,value
2023-09-07T00:02:31.560Z,8.48
2023-09-07T00:05:09.523Z,8.50
2023-09-07T00:07:39.981Z,8.93
2023-09-07T00:10:10.669Z,8.56
2023-09-07T00:12:43.099Z,8.94
2023-09-07T00:15:13.572Z,8.85
2023-09-07T00:17:46.073Z,9.41
2023-09-07T00:20:20.617Z,9.42
2023-09-07T00:22:52.279Z,9.53
2023-09-07T00:25:22.075Z,9.14
2023-09-07T00:27:54.481Z,9.01
2023-09-07T00:30:24.175Z,8.88
2023-09-07T00:32:53.923Z,8.84
2023-09-07T00:35:23.733Z,9.11
2023-09-07T00:37:53.498Z,8.83
2023-09-07T00:40:23.256Z,9.46
2023-09-07T00:42:55.867Z,9.71
2023-09-07T00:45:26.095Z,9.52
2023-09-07T00:47:56.058Z,9.53
2023-09-07T00:50:28.067Z,9.61
2023-09-07T00:52:58.361Z,9.83
2023-09-07T00:55:28.098Z,10.08
2023-09-07T00:58:01.228Z,9.95
2023-09-07T01:00:31.487Z,9.93
2023-09-07T01:03:02.591Z,10.16
2023-09-07T01:05:37.401Z,10.48
2023-09-07T01:08:14.168Z,10.18
2023-09-07T01:10:44.052Z,10.28
2023-09-07T01:13:16.548Z,10.33
2023-09-07T01:15:46.577Z,10.27
2023-09-07T01:18:24.597Z,10.63
2023-09-07T01:20:56.563Z,10.37
2023-09-07T01:23:29.284Z,10.30
2023-09-07T01:25:59.888Z,10.31
2023-09-07T01:28:30.037Z,10.89
2023-09-07T01:31:00.882Z,10.60
2023-09-07T01:33:30.711Z,10.38
2023-09-07T01:36:00.623Z,10.30
2023-09-07T01:38:33.237Z,10.48
2023-09-07T01:41:03.382Z,10.85
2023-09-07T01:43:33.219Z,10.58
2023-09-07T01:46:03.159Z,10.66
2023-09-07T01:48:33.462Z,11.02
2023-09-07T01:51:05.900Z,11.40
2023-09-07T01:53:38.801Z,11.10
2023-09-07T01:56:10.534Z,11.27
2023-09-07T01:58:42.326Z,11.06
2023-09-07T02:01:23.633Z,10.62
2023-09-07T02:03:53.474Z,10.83
2023-09-07T02:06:23.412Z,10.63
2023-09-07T02:08:55.730Z,10.86
2023-09-07T02:11:26.728Z,10.72
2023-09-07T02:13:56.497Z,10.93
2023-09-07T02:16:26.412Z,10.86
2023-09-07T02:19:03.483Z,10.87
2023-09-07T02:21:33.622Z,10.95
2023-09-07T02:24:06.000Z,11.19
2023-09-07T02:26:35.759Z,11.03
2023-09-07T02:29:07.946Z,10.53
2023-09-07T02:31:38.168Z,10.67
2023-09-07T02:34:08.159Z,10.67
2023-09-07T02:36:38.689Z,10.51
2023-09-07T02:39:12.759Z,10.85
2023-09-07T02:41:42.552Z,10.65
2023-09-07T02:44:12.358Z,10.66
2023-09-07T02:46:42.123Z,10.47
2023-09-07T02:49:12.029Z,10.09
2023-09-07T02:51:41.845Z,10.73
2023-09-07T02:54:14.239Z,9.99
2023-09-07T02:56:44.016Z,9.90
2023-09-07T02:59:14.150Z,10.20
2023-09-07T03:01:44.318Z,10.42
2023-09-07T03:04:14.830Z,10.36
2023-09-07T03:06:44.848Z,10.44
2023-09-07T03:09:17.657Z,10.49
2023-09-07T03:11:47.625Z,10.30
2023-09-07T03:14:17.392Z,10.31
2023-09-07T03:16:50.124Z,10.53
2023-09-07T03:19:20.568Z,10.24
2023-09-07T03:21:50.535Z,10.29
2023-09-07T03:24:22.892Z,10.71
2023-09-07T03:26:52.682Z,9.88
2023-09-07T03:29:22.391Z,9.84
2023-09-07T03:31:52.802Z,10.29
2023-09-07T03:34:23.635Z,10.42
2023-09-07T03:36:53.490Z,10.02
2023-09-07T03:39:26.273Z,10.30
2023-09-07T03:41:56.452Z,11.02
2023-09-07T03:44:26.919Z,11.33
2023-09-07T03:46:56.723Z,11.30
2023-09-07T03:49:26.671Z,11.03
2023-09-07T03:51:56.548Z,11.09
2023-09-07T03:54:29.843Z,10.62
2023-09-07T03:56:59.638Z,10.33
2023-09-07T03:59:31.273Z,10.31
2023-09-07T04:02:01.387Z,10.58
2023-09-07T04:04:31.406Z,11.08
2023-09-07T04:07:01.146Z,10.67
2023-09-07T04:09:33.472Z,10.46
2023-09-07T04:12:05.058Z,10.74
2023-09-07T04:14:34.980Z,11.90
2023-09-07T04:17:04.888Z,11.39
2023-09-07T04:19:35.047Z,10.78
2023-09-07T04:22:04.869Z,11.25
2023-09-07T04:24:37.255Z,10.68
2023-09-07T04:27:08.631Z,10.55
2023-09-07T04:29:38.436Z,10.62
2023-09-07T04:32:08.490Z,10.89
2023-09-07T04:34:38.251Z,11.05
2023-09-07T04:37:07.977Z,11.03
2023-09-07T04:39:41.353Z,10.87
2023-09-07T04:42:11.054Z,10.75
2023-09-07T04:44:40.786Z,10.62
2023-09-07T04:47:10.590Z,10.03
2023-09-07T04:49:40.434Z,10.13
2023-09-07T04:52:10.652Z,9.69
2023-09-07T04:54:42.954Z,10.03
2023-09-07T04:57:12.786Z,10.72
2023-09-07T04:59:42.945Z,10.65
2023-09-07T05:02:13.356Z,10.72
2023-09-07T05:04:43.212Z,10.56
2023-09-07T05:07:14.466Z,10.75
2023-09-07T05:09:46.909Z,10.51
2023-09-07T05:12:19.908Z,11.18
2023-09-07T05:14:49.906Z,10.61
2023-09-07T05:17:19.688Z,10.78
2023-09-07T05:19:49.428Z,10.58
2023-09-07T05:22:19.207Z,10.67
2023-09-07T05:24:51.657Z,10.65
2023-09-07T05:27:21.497Z,10.58
2023-09-07T05:29:51.225Z,10.68
2023-09-07T05:32:21.079Z,10.71
2023-09-07T05:34:50.918Z,10.44
2023-09-07T05:37:20.877Z,10.50
2023-09-07T05:39:53.615Z,10.22
2023-09-07T05:42:23.374Z,10.08
2023-09-07T05:44:55.873Z,9.99
2023-09-07T05:47:27.708Z,10.33
2023-09-07T05:49:57.720Z,10.00
2023-09-07T05:52:27.712Z,9.74
2023-09-07T05:55:00.728Z,10.13
2023-09-07T05:57:30.577Z,10.30
2023-09-07T06:00:00.372Z,10.29
2023-09-07T06:02:30.281Z,10.05
2023-09-07T06:05:00.374Z,9.92
2023-09-07T06:07:30.188Z,11.89
2023-09-07T06:10:02.956Z,12.07
2023-09-07T06:12:32.637Z,10.64
2023-09-07T06:15:02.532Z,10.60
2023-09-07T06:17:32.824Z,10.22
2023-09-07T06:20:02.832Z,10.48
2023-09-07T06:22:32.676Z,10.88
2023-09-07T06:25:05.036Z,10.49
2023-09-07T06:27:34.959Z,10.28
2023-09-07T06:30:04.947Z,10.62
2023-09-07T06:32:35.237Z,10.71
2023-09-07T06:35:05.654Z,11.10
2023-09-07T06:37:35.549Z,10.90
2023-09-07T06:40:08.367Z,11.17
2023-09-07T06:42:38.460Z,10.88
2023-09-07T06:45:13.987Z,11.03
2023-09-07T06:47:44.240Z,10.84
2023-09-07T06:50:15.144Z,10.92
2023-09-07T06:52:44.980Z,10.68
2023-09-07T06:55:18.605Z,10.65
2023-09-07T06:57:50.727Z,10.40
2023-09-07T07:00:21.013Z,10.82
2023-09-07T07:02:51.275Z,10.95
2023-09-07T07:05:23.590Z,10.38
2023-09-07T07:07:53.507Z,10.27
2023-09-07T07:10:26.010Z,10.15
2023-09-07T07:12:55.908Z,10.47
2023-09-07T07:15:25.782Z,10.32
2023-09-07T07:17:55.871Z,10.33
2023-09-07T07:20:25.708Z,10.54
2023-09-07T07:22:55.632Z,10.11
2023-09-07T07:25:28.118Z,9.90
2023-09-07T07:27:58.128Z,10.18
2023-09-07T07:30:31.009Z,9.65
2023-09-07T07:33:01.288Z,9.38
2023-09-07T07:35:31.508Z,9.55
2023-09-07T07:38:01.708Z,9.12
2023-09-07T07:40:34.353Z,8.95
2023-09-07T07:43:04.988Z,8.96
2023-09-07T07:45:37.857Z,8.67
2023-09-07T07:48:09.400Z,8.29
2023-09-07T07:50:43.128Z,8.27
2023-09-07T07:53:16.117Z,8.18
2023-09-07T07:55:49.864Z,8.37
2023-09-07T07:58:22.737Z,8.48
2023-09-07T08:00:53.091Z,8.30
2023-09-07T08:03:28.856Z,7.62
2023-09-07T08:05:59.021Z,7.54
2023-09-07T08:08:28.808Z,8.13
2023-09-07T08:11:06.074Z,8.94
2023-09-07T08:13:37.990Z,8.55
2023-09-07T08:16:11.160Z,8.19
2023-09-07T08:18:42.486Z,8.32
2023-09-07T08:21:13.567Z,7.84
2023-09-07T08:23:43.473Z,8.07
2023-09-07T08:26:16.702Z,7.27
2023-09-07T08:28:49.066Z,6.75
2023-09-07T08:31:23.310Z,6.68
2023-09-07T08:33:56.521Z,6.54
2023-09-07T08:36:29.541Z,6.54
2023-09-07T08:39:01.075Z,6.08
2023-09-07T08:41:40.559Z,6.35
2023-09-07T08:44:20.873Z,6.36
2023-09-07T08:46:51.402Z,6.53
2023-09-07T08:49:22.340Z,6.64
2023-09-07T08:51:53.160Z,6.07
2023-09-07T08:54:23.288Z,6.39
2023-09-07T08:56:58.298Z,5.96
2023-09-07T08:59:28.344Z,6.48
2023-09-07T09:02:02.368Z,5.97
2023-09-07T09:04:32.966Z,6.39
2023-09-07T09:07:05.233Z,5.92
2023-09-07T09:09:35.174Z,6.23
2023-09-07T09:12:16.931Z,6.51
2023-09-07T09:14:47.729Z,6.39
2023-09-07T09:17:18.086Z,6.49
2023-09-07T09:19:47.874Z,6.50
2023-09-07T09:22:17.868Z,6.51
2023-09-07T09:24:47.717Z,6.09
2023-09-07T09:27:20.078Z,6.28
2023-09-07T09:29:49.812Z,6.29
2023-09-07T09:32:19.569Z,6.46
2023-09-07T09:34:49.410Z,6.71
2023-09-07T09:37:20.492Z,6.64
2023-09-07T09:39:53.132Z,6.44
2023-09-07T09:42:27.733Z,6.46
2023-09-07T09:44:58.781Z,6.29
2023-09-07T09:47:29.350Z,6.21
2023-09-07T09:50:00.381Z,6.39
2023-09-07T09:52:31.437Z,6.68
2023-09-07T09:55:02.109Z,6.70
2023-09-07T09:57:35.606Z,6.65
2023-09-07T10:00:10.094Z,6.85
2023-09-07T10:02:44.162Z,6.55
2023-09-07T10:05:15.640Z,6.16
2023-09-07T10:07:46.541Z,6.45
2023-09-07T10:10:16.914Z,6.72
2023-09-07T10:12:55.080Z,6.78
2023-09-07T10:15:25.360Z,6.52
2023-09-07T10:18:06.161Z,6.75
2023-09-07T10:20:39.316Z,6.93
2023-09-07T10:23:10.448Z,6.88
2023-09-07T10:25:40.322Z,6.93
2023-09-07T10:28:21.328Z,6.62
2023-09-07T10:31:01.331Z,6.53
2023-09-07T10:33:31.418Z,6.88
2023-09-07T10:36:02.765Z,6.59
2023-09-07T10:38:33.412Z,6.76
2023-09-07T10:41:04.230Z,6.97
2023-09-07T10:43:37.507Z,6.28
2023-09-07T10:46:07.371Z,6.70
2023-09-07T10:48:37.779Z,6.59
2023-09-07T10:51:07.725Z,6.50
2023-09-07T10:53:37.870Z,6.61
2023-09-07T10:56:08.852Z,6.71
2023-09-07T10:58:43.497Z,6.21
2023-09-07T11:01:17.488Z,6.31
2023-09-07T11:03:48.020Z,6.27
2023-09-07T11:06:20.504Z,6.65
2023-09-07T11:08:50.615Z,6.23
2023-09-07T11:11:20.855Z,6.06
2023-09-07T11:13:54.037Z,6.31
2023-09-07T11:16:23.763Z,6.40
2023-09-07T11:18:55.849Z,6.30
2023-09-07T11:21:27.261Z,6.00
2023-09-07T11:23:57.112Z,6.24
2023-09-07T11:26:27.220Z,6.16
2023-09-07T11:29:00.553Z,6.18
2023-09-07T11:31:30.415Z,6.46
2023-09-07T11:34:00.309Z,6.24
2023-09-07T11:36:30.090Z,6.26
2023-09-07T11:38:59.817Z,6.05
2023-09-07T11:41:29.532Z,6.05
2023-09-07T11:44:01.803Z,6.60
2023-09-07T11:46:31.973Z,6.35
2023-09-07T11:49:01.754Z,5.98
2023-09-07T11:51:31.614Z,6.11
2023-09-07T11:54:01.349Z,6.22
2023-09-07T11:56:31.265Z,6.20
2023-09-07T11:59:03.911Z,6.19
2023-09-07T12:01:34.704Z,6.20
2023-09-07T12:04:05.816Z,6.20
2023-09-07T12:06:35.754Z,5.95
2023-09-07T12:09:06.409Z,6.17
2023-09-07T12:11:36.274Z,6.03
2023-09-07T12:14:08.869Z,5.94
2023-09-07T12:16:38.911Z,6.04
2023-09-07T12:19:08.867Z,6.13
2023-09-07T12:21:38.537Z,5.78
2023-09-07T12:24:08.566Z,5.85
2023-09-07T12:26:38.312Z,6.03
2023-09-07T12:29:11.010Z,6.15
2023-09-07T12:31:40.855Z,6.07
2023-09-07T12:34:11.136Z,5.97
2023-09-07T12:36:41.599Z,5.97
2023-09-07T12:39:13.917Z,5.69
2023-09-07T12:41:43.966Z,5.42
2023-09-07T12:44:16.756Z,5.14
2023-09-07T12:46:46.639Z,5.14
2023-09-07T12:49:16.372Z,5.16
2023-09-07T12:51:46.124Z,5.21
2023-09-07T12:54:15.961Z,5.47
2023-09-07T12:56:46.274Z,5.32
2023-09-07T12:59:18.611Z,5.26
2023-09-07T13:01:48.909Z,5.36
2023-09-07T13:04:18.676Z,5.28
2023-09-07T13:06:48.437Z,5.27
2023-09-07T13:09:18.672Z,5.31
2023-09-07T13:11:48.506Z,5.38
2023-09-07T13:14:20.886Z,5.03
2023-09-07T13:16:52.939Z,5.31
2023-09-07T13:19:23.907Z,5.00
2023-09-07T13:21:53.609Z,5.55
2023-09-07T13:24:24.222Z,5.67
2023-09-07T13:26:55.658Z,5.20
2023-09-07T13:29:28.149Z,5.19
2023-09-07T13:31:59.543Z,5.11
2023-09-07T13:34:29.997Z,5.22
2023-09-07T13:37:00.274Z,5.01
2023-09-07T13:39:30.277Z,5.02
2023-09-07T13:42:00.056Z,5.42
2023-09-07T13:44:32.360Z,5.21
2023-09-07T13:47:02.277Z,5.23
2023-09-07T13:49:32.039Z,5.41
2023-09-07T13:52:01.914Z,5.49
2023-09-07T13:54:31.658Z,5.17
2023-09-07T13:57:01.446Z,5.25
2023-09-07T13:59:35.835Z,5.05
2023-09-07T14:02:05.678Z,5.95
2023-09-07T14:04:35.432Z,6.04
2023-09-07T14:07:05.121Z,5.67
2023-09-07T14:09:34.881Z,5.71
2023-09-07T14:12:04.615Z,5.61
2023-09-07T14:14:37.037Z,5.61
2023-09-07T14:17:07.735Z,5.83
2023-09-07T14:19:37.497Z,6.01
2023-09-07T14:22:07.471Z,5.59
2023-09-07T14:24:37.516Z,5.97
2023-09-07T14:27:07.533Z,6.00
2023-09-07T14:29:40.126Z,5.42
2023-09-07T14:32:09.934Z,5.70
2023-09-07T14:34:40.152Z,5.77
2023-09-07T14:37:09.971Z,5.59
2023-09-07T14:39:39.851Z,5.90
2023-09-07T14:42:15.289Z,5.89
2023-09-07T14:44:48.589Z,5.81
2023-09-07T14:47:18.379Z,5.90
2023-09-07T14:49:48.156Z,5.74
2023-09-07T14:52:17.854Z,5.95
2023-09-07T14:54:47.656Z,5.98
2023-09-07T14:57:19.437Z,6.24
2023-09-07T14:59:52.237Z,5.62
2023-09-07T15:02:22.014Z,5.80
2023-09-07T15:04:51.823Z,5.91
2023-09-07T15:07:23.325Z,5.82
2023-09-07T15:09:53.720Z,5.98
2023-09-07T15:12:23.723Z,5.97
2023-09-07T15:14:56.260Z,5.85
2023-09-07T15:17:26.211Z,5.63
2023-09-07T15:19:55.978Z,5.75
2023-09-07T15:22:25.728Z,5.93
2023-09-07T15:24:56.928Z,5.99
2023-09-07T15:27:26.747Z,6.35
2023-09-07T15:29:59.074Z,6.05
2023-09-07T15:32:29.059Z,6.90
2023-09-07T15:34:58.918Z,6.35
2023-09-07T15:37:28.649Z,6.47
2023-09-07T15:39:58.402Z,6.60
2023-09-07T15:42:28.098Z,6.41
2023-09-07T15:45:00.411Z,6.85
2023-09-07T15:47:30.336Z,6.34
2023-09-07T15:50:01.635Z,6.95
2023-09-07T15:52:31.471Z,6.73
2023-09-07T15:55:01.381Z,6.80
2023-09-07T15:57:31.275Z,6.89
2023-09-07T16:00:03.633Z,6.75
2023-09-07T16:02:45.473Z,6.52
2023-09-07T16:05:15.522Z,7.12
2023-09-07T16:07:45.472Z,7.28
2023-09-07T16:10:15.246Z,6.61
2023-09-07T16:12:45.014Z,6.71
2023-09-07T16:15:17.445Z,6.92
2023-09-07T16:17:47.404Z,7.02
2023-09-07T16:20:17.317Z,7.09
2023-09-07T16:22:47.148Z,6.72
2023-09-07T16:25:16.947Z,7.16
2023-09-07T16:27:48.125Z,6.85
2023-09-07T16:30:20.605Z,7.08
2023-09-07T16:32:51.224Z,6.83
2023-09-07T16:35:22.035Z,6.86
2023-09-07T16:37:51.766Z,7.28
2023-09-07T16:40:21.860Z,6.80
2023-09-07T16:42:51.606Z,6.77
2023-09-07T16:45:23.942Z,7.00
2023-09-07T16:47:53.703Z,6.94
2023-09-07T16:50:23.564Z,7.47
2023-09-07T16:52:53.805Z,7.05
2023-09-07T16:55:23.676Z,6.98
2023-09-07T16:57:53.454Z,7.25
2023-09-07T17:00:25.916Z,7.41
2023-09-07T17:02:55.942Z,7.37
2023-09-07T17:05:25.932Z,7.39
2023-09-07T17:07:55.703Z,7.67
2023-09-07T17:10:25.442Z,7.48
2023-09-07T17:12:55.192Z,7.62
2023-09-07T17:15:27.852Z,7.60
2023-09-07T17:17:57.768Z,7.78
2023-09-07T17:20:27.620Z,7.77
2023-09-07T17:22:57.414Z,7.55
2023-09-07T17:25:27.214Z,7.61
2023-09-07T17:27:56.959Z,7.58
2023-09-07T17:30:30.097Z,7.58
2023-09-07T17:33:00.005Z,7.55
2023-09-07T17:35:30.115Z,7.89
2023-09-07T17:38:00.122Z,7.79
2023-09-07T17:40:29.842Z,7.49
2023-09-07T17:43:00.240Z,7.54
2023-09-07T17:45:32.626Z,8.06
2023-09-07T17:48:03.468Z,8.29
2023-09-07T17:50:33.288Z,7.85
2023-09-07T17:53:03.158Z,8.07
2023-09-07T17:55:32.915Z,8.25
2023-09-07T17:58:02.654Z,8.28
2023-09-07T18:00:35.746Z,8.28
2023-09-07T18:03:05.814Z,8.34
2023-09-07T18:05:35.575Z,8.35
2023-09-07T18:08:05.325Z,8.81
2023-09-07T18:10:35.105Z,8.26
2023-09-07T18:13:04.803Z,8.41
2023-09-07T18:15:37.863Z,8.61
2023-09-07T18:18:08.763Z,8.56
2023-09-07T18:20:38.538Z,8.48
2023-09-07T18:23:08.363Z,8.28
2023-09-07T18:25:38.965Z,8.06
2023-09-07T18:28:09.375Z,7.77
2023-09-07T18:30:43.699Z,7.90
2023-09-07T18:33:13.678Z,7.97
2023-09-07T18:35:43.405Z,8.40
2023-09-07T18:38:13.116Z,8.26
2023-09-07T18:40:42.905Z,8.44
2023-09-07T18:43:12.760Z,8.56
2023-09-07T18:45:45.191Z,8.41
2023-09-07T18:48:14.911Z,9.10
2023-09-07T18:50:44.618Z,9.03
2023-09-07T18:53:14.434Z,8.73
2023-09-07T18:55:44.323Z,9.12
2023-09-07T18:58:14.291Z,8.75
2023-09-07T19:00:46.655Z,9.32
2023-09-07T19:03:16.580Z,9.43
2023-09-07T19:05:46.437Z,9.14
2023-09-07T19:08:16.398Z,9.37
2023-09-07T19:10:47.216Z,9.32
2023-09-07T19:13:17.012Z,9.96
2023-09-07T19:15:49.426Z,9.78
2023-09-07T19:18:19.164Z,9.74
2023-09-07T19:20:48.942Z,10.29
2023-09-07T19:23:18.727Z,9.73
2023-09-07T19:25:48.476Z,9.95
2023-09-07T19:28:18.176Z,9.88
2023-09-07T19:30:50.509Z,10.13
2023-09-07T19:33:20.327Z,10.22
2023-09-07T19:35:50.175Z,9.97
2023-09-07T19:38:19.961Z,9.53
2023-09-07T19:40:56.528Z,10.70
2023-09-07T19:43:26.921Z,10.33
2023-09-07T19:45:59.497Z,10.33
2023-09-07T19:48:29.704Z,10.13
2023-09-07T19:50:59.534Z,9.51
2023-09-07T19:53:29.722Z,9.41
2023-09-07T19:56:07.604Z,9.72
2023-09-07T19:58:37.666Z,9.92
2023-09-07T20:01:14.098Z,9.61
2023-09-07T20:03:46.389Z,9.75
2023-09-07T20:06:16.480Z,10.03
2023-09-07T20:08:46.358Z,10.24
2023-09-07T20:11:17.167Z,9.85
2023-09-07T20:13:47.016Z,9.48
2023-09-07T20:16:19.561Z,9.71
2023-09-07T20:18:49.875Z,9.62
2023-09-07T20:21:20.027Z,9.46
2023-09-07T20:23:50.119Z,9.49
2023-09-07T20:26:19.960Z,9.81
2023-09-07T20:28:50.849Z,9.56
2023-09-07T20:31:23.521Z,9.31
2023-09-07T20:33:53.705Z,9.51
2023-09-07T20:36:23.445Z,9.20
2023-09-07T20:38:53.786Z,9.21
2023-09-07T20:41:23.557Z,9.32
2023-09-07T20:43:53.472Z,9.45
2023-09-07T20:46:25.821Z,9.58
2023-09-07T20:48:55.670Z,9.71
2023-09-07T20:51:25.441Z,9.68
2023-09-07T20:53:55.497Z,10.27
2023-09-07T20:56:25.417Z,9.99
2023-09-07T20:58:55.228Z,10.36
2023-09-07T21:01:27.569Z,10.23
2023-09-07T21:03:57.449Z,10.03
2023-09-07T21:06:28.069Z,10.24
2023-09-07T21:08:58.008Z,9.94
2023-09-07T21:11:27.701Z,10.24
2023-09-07T21:13:57.440Z,10.07
2023-09-07T21:16:30.311Z,10.02
2023-09-07T21:19:00.141Z,9.93
2023-09-07T21:21:30.424Z,10.54
2023-09-07T21:24:00.282Z,10.28
2023-09-07T21:26:30.658Z,10.21
2023-09-07T21:29:00.694Z,9.86
2023-09-07T21:31:33.782Z,9.99
2023-09-07T21:34:03.710Z,11.02
2023-09-07T21:36:33.545Z,11.57
2023-09-07T21:39:03.623Z,10.77
2023-09-07T21:41:41.055Z,11.20
2023-09-07T21:44:10.879Z,11.11
2023-09-07T21:46:44.065Z,11.40
2023-09-07T21:49:15.021Z,11.76
2023-09-07T21:51:45.160Z,11.60
2023-09-07T21:54:15.515Z,10.93
2023-09-07T21:56:45.597Z,11.15
2023-09-07T21:59:15.360Z,11.42
2023-09-07T22:01:47.812Z,11.70
2023-09-07T22:04:17.753Z,11.16
2023-09-07T22:06:47.700Z,11.56
2023-09-07T22:09:18.695Z,11.92
2023-09-07T22:11:48.589Z,12.08
2023-09-07T22:14:18.385Z,11.35
2023-09-07T22:16:50.881Z,11.82
2023-09-07T22:19:21.157Z,11.93
2023-09-07T22:21:50.950Z,11.96
2023-09-07T22:24:20.973Z,12.25
2023-09-07T22:26:52.671Z,11.76
2023-09-07T22:29:23.908Z,11.57
2023-09-07T22:31:56.428Z,11.24
2023-09-07T22:34:26.775Z,11.37
2023-09-07T22:36:56.674Z,11.04
2023-09-07T22:39:26.445Z,11.87
2023-09-07T22:41:56.232Z,11.61
2023-09-07T22:44:26.141Z,11.39
2023-09-07T22:46:58.618Z,11.42
2023-09-07T22:49:28.408Z,11.83
2023-09-07T22:51:58.218Z,11.68
2023-09-07T22:54:28.036Z,12.01
2023-09-07T22:56:57.943Z,11.93
2023-09-07T22:59:27.759Z,11.87
2023-09-07T23:02:00.577Z,11.95
2023-09-07T23:04:30.533Z,11.67
2023-09-07T23:07:00.465Z,12.15
2023-09-07T23:09:32.115Z,12.05
2023-09-07T23:12:02.010Z,12.31
2023-09-07T23:14:31.757Z,12.17
2023-09-07T23:17:04.133Z,12.33
2023-09-07T23:19:33.911Z,12.32
2023-09-07T23:22:04.074Z,11.91
2023-09-07T23:24:33.885Z,10.97
2023-09-07T23:27:04.040Z,11.80
2023-09-07T23:29:33.773Z,11.88
2023-09-07T23:32:06.225Z,11.62
2023-09-07T23:34:36.656Z,11.46
2023-09-07T23:37:06.835Z,11.77
2023-09-07T23:39:36.657Z,11.57
2023-09-07T23:42:06.741Z,11.51
2023-09-07T23:44:38.391Z,11.42
2023-09-07T23:47:10.895Z,11.65
2023-09-07T23:49:40.716Z,11.20
2023-09-07T23:52:11.015Z,11.74
2023-09-07T23:54:40.815Z,11.98
2023-09-07T23:57:10.569Z,11.22
2023-09-07T23:59:41.574Z,11.08
